sensor_id;sensor_type;location;lat;lon;timestamp;pressure;altitude;pressure_sealevel;temperature;humidity
36748;BME280;22716;51.556;5.080;2024-01-30T00:01:52;101876.94;;;9.28;100.00
36748;BME280;22716;51.556;5.080;2024-01-30T00:04:23;101880.44;;;9.27;100.00
36748;BME280;22716;51.556;5.080;2024-01-30T00:06:51;101878.69;;;9.26;100.00
36748;BME280;22716;51.556;5.080;2024-01-30T00:09:21;101875.19;;;9.26;100.00
36748;BME280;22716;51.556;5.080;2024-01-30T00:11:49;101870.81;;;9.25;100.00
36748;BME280;22716;51.556;5.080;2024-01-30T00:14:18;101876.03;;;9.25;100.00
36748;BME280;22716;51.556;5.080;2024-01-30T00:16:47;101869.91;;;9.21;100.00
36748;BME280;22716;51.556;5.080;2024-01-30T00:19:15;101865.53;;;9.20;100.00
36748;BME280;22716;51.556;5.080;2024-01-30T00:21:46;101863.81;;;9.21;100.00
36748;BME280;22716;51.556;5.080;2024-01-30T00:24:15;101861.16;;;9.18;100.00
36748;BME280;22716;51.556;5.080;2024-01-30T00:26:43;101863.78;;;9.19;100.00
36748;BME280;22716;51.556;5.080;2024-01-30T00:29:12;101857.69;;;9.19;100.00
36748;BME280;22716;51.556;5.080;2024-01-30T00:31:44;101861.13;;;9.16;100.00
36748;BME280;22716;51.556;5.080;2024-01-30T00:34:13;101854.19;;;9.18;100.00
36748;BME280;22716;51.556;5.080;2024-01-30T00:36:42;101855.06;;;9.19;100.00
36748;BME280;22716;51.556;5.080;2024-01-30T00:39:13;101855.06;;;9.20;100.00
36748;BME280;22716;51.556;5.080;2024-01-30T00:41:41;101857.69;;;9.20;100.00
36748;BME280;22716;51.556;5.080;2024-01-30T00:44:10;101844.63;;;9.19;100.00
36748;BME280;22716;51.556;5.080;2024-01-30T00:46:38;101850.69;;;9.18;100.00
36748;BME280;22716;51.556;5.080;2024-01-30T00:49:07;101850.66;;;9.16;100.00
36748;BME280;22716;51.556;5.080;2024-01-30T00:51:35;101851.56;;;9.18;100.00
36748;BME280;22716;51.556;5.080;2024-01-30T00:54:04;101848.94;;;9.17;100.00
36748;BME280;22716;51.556;5.080;2024-01-30T00:56:36;101848.00;;;9.13;100.00
36748;BME280;22716;51.556;5.080;2024-01-30T00:59:04;101846.31;;;9.15;100.00
36748;BME280;22716;51.556;5.080;2024-01-30T01:01:33;101848.94;;;9.15;100.00
36748;BME280;22716;51.556;5.080;2024-01-30T01:04:02;101841.00;;;9.11;100.00
36748;BME280;22716;51.556;5.080;2024-01-30T01:06:30;101839.34;;;9.16;100.00
36748;BME280;22716;51.556;5.080;2024-01-30T01:08:59;101836.75;;;9.16;100.00
36748;BME280;22716;51.556;5.080;2024-01-30T01:11:28;101838.41;;;9.11;100.00
36748;BME280;22716;51.556;5.080;2024-01-30T01:13:59;101838.47;;;9.17;100.00
36748;BME280;22716;51.556;5.080;2024-01-30T01:16:28;101838.47;;;9.15;100.00
36748;BME280;22716;51.556;5.080;2024-01-30T01:18:57;101836.75;;;9.17;100.00
36748;BME280;22716;51.556;5.080;2024-01-30T01:21:25;101837.63;;;9.18;100.00
36748;BME280;22716;51.556;5.080;2024-01-30T01:23:54;101830.66;;;9.18;100.00
36748;BME280;22716;51.556;5.080;2024-01-30T01:26:23;101831.53;;;9.19;100.00
36748;BME280;22716;51.556;5.080;2024-01-30T01:28:51;101829.81;;;9.21;100.00
36748;BME280;22716;51.556;5.080;2024-01-30T01:31:22;101834.19;;;9.23;100.00
36748;BME280;22716;51.556;5.080;2024-01-30T01:33:55;101823.69;;;9.20;100.00
36748;BME280;22716;51.556;5.080;2024-01-30T01:36:23;101827.22;;;9.25;100.00
36748;BME280;22716;51.556;5.080;2024-01-30T01:38:52;101828.09;;;9.26;100.00
36748;BME280;22716;51.556;5.080;2024-01-30T01:41:20;101827.25;;;9.28;100.00
36748;BME280;22716;51.556;5.080;2024-01-30T01:43:49;101823.75;;;9.28;100.00
36748;BME280;22716;51.556;5.080;2024-01-30T01:46:17;101811.56;;;9.28;100.00
36748;BME280;22716;51.556;5.080;2024-01-30T01:48:49;101818.56;;;9.29;100.00
36748;BME280;22716;51.556;5.080;2024-01-30T01:51:18;101813.31;;;9.26;100.00
36748;BME280;22716;51.556;5.080;2024-01-30T01:53:47;101803.69;;;9.24;100.00
36748;BME280;22716;51.556;5.080;2024-01-30T01:56:16;101816.84;;;9.30;100.00
36748;BME280;22716;51.556;5.080;2024-01-30T01:58:46;101815.03;;;9.26;100.00
36748;BME280;22716;51.556;5.080;2024-01-30T02:01:18;101815.91;;;9.26;100.00
36748;BME280;22716;51.556;5.080;2024-01-30T02:03:51;101815.91;;;9.26;100.00
36748;BME280;22716;51.556;5.080;2024-01-30T02:06:20;101826.38;;;9.28;100.00
36748;BME280;22716;51.556;5.080;2024-01-30T02:08:48;101808.88;;;9.22;100.00
36748;BME280;22716;51.556;5.080;2024-01-30T02:11:17;101815.00;;;9.23;100.00
36748;BME280;22716;51.556;5.080;2024-01-30T02:13:45;101817.66;;;9.24;100.00
36748;BME280;22716;51.556;5.080;2024-01-30T02:16:14;101816.72;;;9.22;100.00
36748;BME280;22716;51.556;5.080;2024-01-30T02:18:43;101810.63;;;9.22;100.00
36748;BME280;22716;51.556;5.080;2024-01-30T02:21:17;101813.25;;;9.19;100.00
36748;BME280;22716;51.556;5.080;2024-01-30T02:23:47;101814.09;;;9.19;100.00
36748;BME280;22716;51.556;5.080;2024-01-30T02:26:16;101821.09;;;9.20;100.00
36748;BME280;22716;51.556;5.080;2024-01-30T02:28:45;101806.25;;;9.18;100.00
36748;BME280;22716;51.556;5.080;2024-01-30T02:31:14;101807.09;;;9.17;100.00
36748;BME280;22716;51.556;5.080;2024-01-30T02:33:42;101799.25;;;9.15;100.00
36748;BME280;22716;51.556;5.080;2024-01-30T02:36:11;101800.09;;;9.14;100.00
36748;BME280;22716;51.556;5.080;2024-01-30T02:38:44;101801.81;;;9.12;100.00
36748;BME280;22716;51.556;5.080;2024-01-30T02:41:12;101795.72;;;9.12;100.00
36748;BME280;22716;51.556;5.080;2024-01-30T02:43:41;101797.47;;;9.13;100.00
36748;BME280;22716;51.556;5.080;2024-01-30T02:46:09;101795.72;;;9.13;100.00
36748;BME280;22716;51.556;5.080;2024-01-30T02:48:38;101785.22;;;9.10;100.00
36748;BME280;22716;51.556;5.080;2024-01-30T02:51:07;101793.09;;;9.12;100.00
36748;BME280;22716;51.556;5.080;2024-01-30T02:53:35;101787.88;;;9.13;100.00
36748;BME280;22716;51.556;5.080;2024-01-30T02:56:07;101786.13;;;9.12;100.00
36748;BME280;22716;51.556;5.080;2024-01-30T02:58:36;101785.28;;;9.15;100.00
36748;BME280;22716;51.556;5.080;2024-01-30T03:01:04;101772.22;;;9.15;100.00
36748;BME280;22716;51.556;5.080;2024-01-30T03:03:33;101784.41;;;9.14;100.00
36748;BME280;22716;51.556;5.080;2024-01-30T03:06:02;101783.56;;;9.15;100.00
36748;BME280;22716;51.556;5.080;2024-01-30T03:08:31;101787.88;;;9.13;100.00
36748;BME280;22716;51.556;5.080;2024-01-30T03:11:00;101782.69;;;9.16;100.00
36748;BME280;22716;51.556;5.080;2024-01-30T03:13:31;101774.81;;;9.13;100.00
36748;BME280;22716;51.556;5.080;2024-01-30T03:16:00;101780.06;;;9.15;100.00
36748;BME280;22716;51.556;5.080;2024-01-30T03:18:28;101777.44;;;9.16;100.00
36748;BME280;22716;51.556;5.080;2024-01-30T03:20:57;101786.22;;;9.18;100.00
36748;BME280;22716;51.556;5.080;2024-01-30T03:23:26;101784.44;;;9.17;100.00
36748;BME280;22716;51.556;5.080;2024-01-30T03:25:55;101780.06;;;9.16;100.00
36748;BME280;22716;51.556;5.080;2024-01-30T03:28:23;101787.06;;;9.17;100.00
36748;BME280;22716;51.556;5.080;2024-01-30T03:30:54;101775.72;;;9.17;100.00
36748;BME280;22716;51.556;5.080;2024-01-30T03:33:23;101780.09;;;9.18;100.00
36748;BME280;22716;51.556;5.080;2024-01-30T03:35:52;101766.09;;;9.13;100.00
36748;BME280;22716;51.556;5.080;2024-01-30T03:38:21;101788.00;;;9.25;100.00
36748;BME280;22716;51.556;5.080;2024-01-30T03:40:49;101783.66;;;9.24;100.00
36748;BME280;22716;51.556;5.080;2024-01-30T03:43:18;101795.00;;;9.26;100.00
36748;BME280;22716;51.556;5.080;2024-01-30T03:45:46;101788.91;;;9.27;100.00
36748;BME280;22716;51.556;5.080;2024-01-30T03:48:18;101783.66;;;9.24;100.00
36748;BME280;22716;51.556;5.080;2024-01-30T03:50:46;101781.03;;;9.24;100.00
36748;BME280;22716;51.556;5.080;2024-01-30T03:53:15;101783.69;;;9.27;100.00
36748;BME280;22716;51.556;5.080;2024-01-30T03:55:43;101776.69;;;9.26;100.00
36748;BME280;22716;51.556;5.080;2024-01-30T03:58:12;101781.88;;;9.25;100.00
36748;BME280;22716;51.556;5.080;2024-01-30T04:00:41;101780.19;;;9.28;100.00
36748;BME280;22716;51.556;5.080;2024-01-30T04:03:10;101779.34;;;9.29;100.00
36748;BME280;22716;51.556;5.080;2024-01-30T04:05:41;101775.84;;;9.29;100.00
36748;BME280;22716;51.556;5.080;2024-01-30T04:08:10;101768.88;;;9.29;100.00
36748;BME280;22716;51.556;5.080;2024-01-30T04:10:38;101761.91;;;9.30;100.00
36748;BME280;22716;51.556;5.080;2024-01-30T04:13:07;101760.19;;;9.30;100.00
36748;BME280;22716;51.556;5.080;2024-01-30T04:15:35;101755.78;;;9.28;100.00
36748;BME280;22716;51.556;5.080;2024-01-30T04:18:05;101762.78;;;9.32;100.00
36748;BME280;22716;51.556;5.080;2024-01-30T04:20:33;101763.69;;;9.32;100.00
36748;BME280;22716;51.556;5.080;2024-01-30T04:23:04;101758.44;;;9.32;100.00
36748;BME280;22716;51.556;5.080;2024-01-30T04:25:33;101761.94;;;9.34;100.00
36748;BME280;22716;51.556;5.080;2024-01-30T04:28:02;101760.25;;;9.36;100.00
36748;BME280;22716;51.556;5.080;2024-01-30T04:30:30;101764.59;;;9.37;100.00
36748;BME280;22716;51.556;5.080;2024-01-30T04:32:59;101767.19;;;9.37;100.00
36748;BME280;22716;51.556;5.080;2024-01-30T04:35:27;101761.97;;;9.37;100.00
36748;BME280;22716;51.556;5.080;2024-01-30T04:37:56;101775.06;;;9.40;100.00
36748;BME280;22716;51.556;5.080;2024-01-30T04:40:27;101768.13;;;9.41;100.00
36748;BME280;22716;51.556;5.080;2024-01-30T04:42:56;101760.22;;;9.39;100.00
36748;BME280;22716;51.556;5.080;2024-01-30T04:45:24;101751.44;;;9.30;100.00
36748;BME280;22716;51.556;5.080;2024-01-30T04:47:58;101754.16;;;9.40;100.00
36748;BME280;22716;51.556;5.080;2024-01-30T04:50:26;101760.22;;;9.39;100.00
36748;BME280;22716;51.556;5.080;2024-01-30T04:52:55;101757.63;;;9.39;100.00
36748;BME280;22716;51.556;5.080;2024-01-30T04:55:26;101762.88;;;9.41;100.00
36748;BME280;22716;51.556;5.080;2024-01-30T04:57:55;101753.28;;;9.38;100.00
36748;BME280;22716;51.556;5.080;2024-01-30T05:00:23;101750.66;;;9.40;100.00
36748;BME280;22716;51.556;5.080;2024-01-30T05:02:52;101755.00;;;9.39;100.00
36748;BME280;22716;51.556;5.080;2024-01-30T05:05:21;101759.38;;;9.39;100.00
36748;BME280;22716;51.556;5.080;2024-01-30T05:07:50;101758.50;;;9.38;100.00
36748;BME280;22716;51.556;5.080;2024-01-30T05:10:18;101754.16;;;9.40;100.00
36748;BME280;22716;51.556;5.080;2024-01-30T05:12:49;101748.03;;;9.38;100.00
36748;BME280;22716;51.556;5.080;2024-01-30T05:15:18;101742.81;;;9.38;100.00
36748;BME280;22716;51.556;5.080;2024-01-30T05:17:47;101741.06;;;9.36;100.00
36748;BME280;22716;51.556;5.080;2024-01-30T05:20:16;101748.94;;;9.42;100.00
36748;BME280;22716;51.556;5.080;2024-01-30T05:22:45;101751.56;;;9.43;100.00
36748;BME280;22716;51.556;5.080;2024-01-30T05:25:14;101748.06;;;9.41;100.00
36748;BME280;22716;51.556;5.080;2024-01-30T05:27:42;101739.34;;;9.42;100.00
36748;BME280;22716;51.556;5.080;2024-01-30T05:30:14;101735.00;;;9.41;100.00
36748;BME280;22716;51.556;5.080;2024-01-30T05:32:43;101741.13;;;9.45;100.00
36748;BME280;22716;51.556;5.080;2024-01-30T05:35:12;101743.75;;;9.46;100.00
36748;BME280;22716;51.556;5.080;2024-01-30T05:37:42;101742.88;;;9.47;100.00
36748;BME280;22716;51.556;5.080;2024-01-30T05:40:11;101745.47;;;9.46;100.00
36748;BME280;22716;51.556;5.080;2024-01-30T05:42:40;101747.25;;;9.48;100.00
36748;BME280;22716;51.556;5.080;2024-01-30T05:45:09;101735.91;;;9.46;100.00
36748;BME280;22716;51.556;5.080;2024-01-30T05:47:40;101735.03;;;9.49;100.00
36748;BME280;22716;51.556;5.080;2024-01-30T05:50:09;101725.44;;;9.45;100.00
36748;BME280;22716;51.556;5.080;2024-01-30T05:52:37;101745.53;;;9.52;100.00
36748;BME280;22716;51.556;5.080;2024-01-30T05:55:07;101743.78;;;9.54;100.00
36748;BME280;22716;51.556;5.080;2024-01-30T05:57:37;101749.91;;;9.54;100.00
36748;BME280;22716;51.556;5.080;2024-01-30T06:00:07;101760.41;;;9.57;100.00
36748;BME280;22716;51.556;5.080;2024-01-30T06:02:35;101758.66;;;9.56;100.00
36748;BME280;22716;51.556;5.080;2024-01-30T06:05:08;101749.94;;;9.56;100.00
36748;BME280;22716;51.556;5.080;2024-01-30T06:07:36;101755.16;;;9.57;100.00
36748;BME280;22716;51.556;5.080;2024-01-30T06:10:06;101753.47;;;9.60;100.00
36748;BME280;22716;51.556;5.080;2024-01-30T06:12:35;101755.19;;;9.61;100.00
36748;BME280;22716;51.556;5.080;2024-01-30T06:15:05;101755.22;;;9.62;100.00
36748;BME280;22716;51.556;5.080;2024-01-30T06:17:35;101763.09;;;9.65;100.00
36748;BME280;22716;51.556;5.080;2024-01-30T06:20:07;101758.69;;;9.60;100.00
36748;BME280;22716;51.556;5.080;2024-01-30T06:22:35;101754.34;;;9.62;100.00
36748;BME280;22716;51.556;5.080;2024-01-30T06:25:05;101768.31;;;9.67;100.00
36748;BME280;22716;51.556;5.080;2024-01-30T06:27:33;101769.22;;;9.67;100.00
36748;BME280;22716;51.556;5.080;2024-01-30T06:30:03;101763.09;;;9.67;100.00
36748;BME280;22716;51.556;5.080;2024-01-30T06:32:32;101765.72;;;9.67;100.00
36748;BME280;22716;51.556;5.080;2024-01-30T06:35:00;101767.47;;;9.68;100.00
36748;BME280;22716;51.556;5.080;2024-01-30T06:37:32;101778.81;;;9.68;100.00
36748;BME280;22716;51.556;5.080;2024-01-30T06:40:00;101780.56;;;9.69;100.00
36748;BME280;22716;51.556;5.080;2024-01-30T06:42:30;101787.56;;;9.69;100.00
36748;BME280;22716;51.556;5.080;2024-01-30T06:44:58;101784.94;;;9.69;100.00
36748;BME280;22716;51.556;5.080;2024-01-30T06:47:27;101792.78;;;9.70;100.00
36748;BME280;22716;51.556;5.080;2024-01-30T06:49:57;101791.03;;;9.68;100.00
36748;BME280;22716;51.556;5.080;2024-01-30T06:52:27;101800.63;;;9.69;100.00
36748;BME280;22716;51.556;5.080;2024-01-30T06:54:58;101803.25;;;9.70;100.00
36748;BME280;22716;51.556;5.080;2024-01-30T06:57:27;101806.72;;;9.69;100.00
36748;BME280;22716;51.556;5.080;2024-01-30T06:59:56;101814.59;;;9.71;100.00
36748;BME280;22716;51.556;5.080;2024-01-30T07:02:25;101801.47;;;9.68;100.00
36748;BME280;22716;51.556;5.080;2024-01-30T07:04:53;101809.38;;;9.71;100.00
36748;BME280;22716;51.556;5.080;2024-01-30T07:07:22;101814.56;;;9.69;100.00
36748;BME280;22716;51.556;5.080;2024-01-30T07:09:51;101816.34;;;9.69;100.00
36748;BME280;22716;51.556;5.080;2024-01-30T07:12:24;101815.44;;;9.70;100.00
36748;BME280;22716;51.556;5.080;2024-01-30T07:14:53;101820.69;;;9.70;100.00
36748;BME280;22716;51.556;5.080;2024-01-30T07:17:22;101815.47;;;9.73;100.00
36748;BME280;22716;51.556;5.080;2024-01-30T07:19:50;101814.59;;;9.71;100.00
36748;BME280;22716;51.556;5.080;2024-01-30T07:22:19;101827.72;;;9.74;100.00
36748;BME280;22716;51.556;5.080;2024-01-30T07:24:47;101830.31;;;9.74;100.00
36748;BME280;22716;51.556;5.080;2024-01-30T07:27:17;101832.06;;;9.75;100.00
36748;BME280;22716;51.556;5.080;2024-01-30T07:29:49;101840.78;;;9.74;100.00
36748;BME280;22716;51.556;5.080;2024-01-30T07:32:18;101838.19;;;9.75;100.00
36748;BME280;22716;51.556;5.080;2024-01-30T07:34:46;101835.53;;;9.71;100.00
36748;BME280;22716;51.556;5.080;2024-01-30T07:37:15;101843.41;;;9.75;100.00
36748;BME280;22716;51.556;5.080;2024-01-30T07:39:44;101851.28;;;9.77;100.00
36748;BME280;22716;51.556;5.080;2024-01-30T07:42:13;101837.28;;;9.75;100.00
36748;BME280;22716;51.556;5.080;2024-01-30T07:44:43;101846.06;;;9.78;100.00
36748;BME280;22716;51.556;5.080;2024-01-30T07:47:14;101841.69;;;9.74;100.00
36748;BME280;22716;51.556;5.080;2024-01-30T07:49:43;101852.19;;;9.80;100.00
36748;BME280;22716;51.556;5.080;2024-01-30T07:52:11;101853.06;;;9.81;100.00
36748;BME280;22716;51.556;5.080;2024-01-30T07:54:49;101853.06;;;9.81;100.00
36748;BME280;22716;51.556;5.080;2024-01-30T07:57:17;101851.34;;;9.83;100.00
36748;BME280;22716;51.556;5.080;2024-01-30T07:59:46;101852.22;;;9.85;100.00
36748;BME280;22716;51.556;5.080;2024-01-30T08:02:17;101857.50;;;9.88;100.00
36748;BME280;22716;51.556;5.080;2024-01-30T08:04:46;101851.38;;;9.87;100.00
36748;BME280;22716;51.556;5.080;2024-01-30T08:07:15;101861.91;;;9.92;100.00
36748;BME280;22716;51.556;5.080;2024-01-30T08:09:44;101865.41;;;9.97;100.00
36748;BME280;22716;51.556;5.080;2024-01-30T08:12:12;101860.19;;;9.97;100.00
36748;BME280;22716;51.556;5.080;2024-01-30T08:14:41;101846.19;;;9.92;100.00
36748;BME280;22716;51.556;5.080;2024-01-30T08:17:09;101856.72;;;10.02;100.00
36748;BME280;22716;51.556;5.080;2024-01-30T08:19:41;101862.00;;;10.05;100.00
36748;BME280;22716;51.556;5.080;2024-01-30T08:22:09;101862.03;;;10.10;100.00
36748;BME280;22716;51.556;5.080;2024-01-30T08:24:37;101852.44;;;10.10;100.00
36748;BME280;22716;51.556;5.080;2024-01-30T08:27:06;101850.78;;;10.16;100.00
36748;BME280;22716;51.556;5.080;2024-01-30T08:29:35;101852.53;;;10.20;100.00
36748;BME280;22716;51.556;5.080;2024-01-30T08:32:05;101849.06;;;10.24;100.00
36748;BME280;22716;51.556;5.080;2024-01-30T08:34:33;101854.31;;;10.25;100.00
36748;BME280;22716;51.556;5.080;2024-01-30T08:37:05;101854.34;;;10.31;100.00
36748;BME280;22716;51.556;5.080;2024-01-30T08:39:33;101853.53;;;10.35;100.00
36748;BME280;22716;51.556;5.080;2024-01-30T08:42:02;101855.28;;;10.38;100.00
36748;BME280;22716;51.556;5.080;2024-01-30T08:44:31;101859.66;;;10.40;100.00
36748;BME280;22716;51.556;5.080;2024-01-30T08:46:59;101864.03;;;10.43;100.00
36748;BME280;22716;51.556;5.080;2024-01-30T08:49:28;101869.31;;;10.47;100.00
36748;BME280;22716;51.556;5.080;2024-01-30T08:51:57;101871.06;;;10.48;100.00
36748;BME280;22716;51.556;5.080;2024-01-30T08:54:28;101866.72;;;10.50;100.00
36748;BME280;22716;51.556;5.080;2024-01-30T08:56:59;101872.81;;;10.54;100.00
36748;BME280;22716;51.556;5.080;2024-01-30T08:59:28;101865.00;;;10.55;100.00
36748;BME280;22716;51.556;5.080;2024-01-30T09:01:56;101879.88;;;10.59;100.00
36748;BME280;22716;51.556;5.080;2024-01-30T09:04:25;101879.88;;;10.61;100.00
36748;BME280;22716;51.556;5.080;2024-01-30T09:06:54;101882.53;;;10.62;100.00
36748;BME280;22716;51.556;5.080;2024-01-30T09:09:22;101886.88;;;10.66;100.00
36748;BME280;22716;51.556;5.080;2024-01-30T09:11:53;101888.66;;;10.67;100.00
36748;BME280;22716;51.556;5.080;2024-01-30T09:14:23;101886.06;;;10.71;100.00
36748;BME280;22716;51.556;5.080;2024-01-30T09:16:52;101888.66;;;10.72;100.00
36748;BME280;22716;51.556;5.080;2024-01-30T09:19:20;101887.81;;;10.73;100.00
36748;BME280;22716;51.556;5.080;2024-01-30T09:21:49;101893.03;;;10.75;100.00
36748;BME280;22716;51.556;5.080;2024-01-30T09:24:17;101882.53;;;10.62;100.00
36748;BME280;22716;51.556;5.080;2024-01-30T09:26:46;101905.31;;;10.74;100.00
36748;BME280;22716;51.556;5.080;2024-01-30T09:29:17;101900.94;;;10.76;100.00
36748;BME280;22716;51.556;5.080;2024-01-30T09:31:46;101895.66;;;10.75;100.00
36748;BME280;22716;51.556;5.080;2024-01-30T09:34:14;101899.19;;;10.74;100.00
36748;BME280;22716;51.556;5.080;2024-01-30T09:36:43;101896.56;;;10.78;100.00
36748;BME280;22716;51.556;5.080;2024-01-30T09:39:11;101895.69;;;10.78;100.00
36748;BME280;22716;51.556;5.080;2024-01-30T09:41:45;101894.84;;;10.80;100.00
36748;BME280;22716;51.556;5.080;2024-01-30T09:44:20;101893.97;;;10.80;100.00
36748;BME280;22716;51.556;5.080;2024-01-30T09:46:49;101904.47;;;10.83;100.00
36748;BME280;22716;51.556;5.080;2024-01-30T09:49:20;101907.97;;;10.85;100.00
36748;BME280;22716;51.556;5.080;2024-01-30T09:51:50;101903.59;;;10.85;100.00
36748;BME280;22716;51.556;5.080;2024-01-30T09:54:20;101903.59;;;10.85;100.00
36748;BME280;22716;51.556;5.080;2024-01-30T09:56:49;101915.84;;;10.89;100.00
36748;BME280;22716;51.556;5.080;2024-01-30T09:59:20;101911.50;;;10.88;100.00
36748;BME280;22716;51.556;5.080;2024-01-30T10:01:50;101914.16;;;10.94;100.00
36748;BME280;22716;51.556;5.080;2024-01-30T10:04:19;101908.91;;;10.96;100.00
36748;BME280;22716;51.556;5.080;2024-01-30T10:06:47;101916.78;;;10.99;100.00
36748;BME280;22716;51.556;5.080;2024-01-30T10:09:16;101922.03;;;11.02;100.00
36748;BME280;22716;51.556;5.080;2024-01-30T10:11:45;101922.06;;;11.03;100.00
36748;BME280;22716;51.556;5.080;2024-01-30T10:14:13;101912.44;;;11.05;100.00
36748;BME280;22716;51.556;5.080;2024-01-30T10:16:46;101904.53;;;10.99;100.00
36748;BME280;22716;51.556;5.080;2024-01-30T10:19:14;101937.81;;;11.11;100.00
36748;BME280;22716;51.556;5.080;2024-01-30T10:21:43;101933.44;;;11.11;100.00
36748;BME280;22716;51.556;5.080;2024-01-30T10:24:11;101923.84;;;11.12;100.00
36748;BME280;22716;51.556;5.080;2024-01-30T10:26:43;101927.38;;;11.23;100.00
36748;BME280;22716;51.556;5.080;2024-01-30T10:29:12;101921.25;;;11.15;100.00
36748;BME280;22716;51.556;5.080;2024-01-30T10:31:41;101929.97;;;11.21;100.00
36748;BME280;22716;51.556;5.080;2024-01-30T10:34:12;101934.41;;;11.24;100.00
36748;BME280;22716;51.556;5.080;2024-01-30T10:36:43;101908.97;;;11.09;100.00
36748;BME280;22716;51.556;5.080;2024-01-30T10:39:17;101928.28;;;11.27;100.00
36748;BME280;22716;51.556;5.080;2024-01-30T10:41:47;101927.38;;;11.23;100.00
36748;BME280;22716;51.556;5.080;2024-01-30T10:44:19;101937.88;;;11.27;100.00
36748;BME280;22716;51.556;5.080;2024-01-30T10:46:53;101937.88;;;11.31;100.00
36748;BME280;22716;51.556;5.080;2024-01-30T10:49:28;101933.56;;;11.33;100.00
36748;BME280;22716;51.556;5.080;2024-01-30T10:51:58;101933.56;;;11.37;100.00
36748;BME280;22716;51.556;5.080;2024-01-30T10:54:29;101940.56;;;11.38;100.00
36748;BME280;22716;51.556;5.080;2024-01-30T10:57:00;101936.19;;;11.40;100.00
36748;BME280;22716;51.556;5.080;2024-01-30T10:59:30;101943.22;;;11.44;100.00
36748;BME280;22716;51.556;5.080;2024-01-30T11:02:00;101939.69;;;11.45;100.00
36748;BME280;22716;51.556;5.080;2024-01-30T11:04:38;101933.56;;;11.48;100.00
36748;BME280;22716;51.556;5.080;2024-01-30T11:07:16;101945.84;;;11.50;100.00
36748;BME280;22716;51.556;5.080;2024-01-30T11:09:49;101937.09;;;11.51;100.00
36748;BME280;22716;51.556;5.080;2024-01-30T11:12:22;101923.09;;;11.45;100.00
36748;BME280;22716;51.556;5.080;2024-01-30T11:15:02;101944.97;;;11.54;100.00
36748;BME280;22716;51.556;5.080;2024-01-30T11:17:45;101943.25;;;11.56;100.00
36748;BME280;22716;51.556;5.080;2024-01-30T11:20:25;101936.22;;;11.54;100.00
36748;BME280;22716;51.556;5.080;2024-01-30T11:22:56;101942.38;;;11.53;100.00
36748;BME280;22716;51.556;5.080;2024-01-30T11:25:25;101932.72;;;11.52;100.00
36748;BME280;22716;51.556;5.080;2024-01-30T11:27:55;101942.34;;;11.50;100.00
36748;BME280;22716;51.556;5.080;2024-01-30T11:30:24;101938.84;;;11.51;100.00
36748;BME280;22716;51.556;5.080;2024-01-30T11:33:04;101938.00;;;11.53;100.00
36748;BME280;22716;51.556;5.080;2024-01-30T11:35:38;101935.34;;;11.52;100.00
36748;BME280;22716;51.556;5.080;2024-01-30T11:38:08;101935.38;;;11.58;100.00
36748;BME280;22716;51.556;5.080;2024-01-30T11:40:38;101946.75;;;11.60;100.00
36748;BME280;22716;51.556;5.080;2024-01-30T11:43:08;101948.50;;;11.53;100.00
36748;BME280;22716;51.556;5.080;2024-01-30T11:45:37;101955.47;;;11.54;100.00
36748;BME280;22716;51.556;5.080;2024-01-30T11:48:07;101955.47;;;11.57;100.00
36748;BME280;22716;51.556;5.080;2024-01-30T11:50:39;101952.84;;;11.51;100.00
36748;BME280;22716;51.556;5.080;2024-01-30T11:53:09;101957.22;;;11.51;100.00
36748;BME280;22716;51.556;5.080;2024-01-30T11:55:38;101967.72;;;11.49;100.00
36748;BME280;22716;51.556;5.080;2024-01-30T11:58:06;101946.75;;;11.55;100.00
36748;BME280;22716;51.556;5.080;2024-01-30T12:00:35;101952.09;;;11.79;100.00
36748;BME280;22716;51.556;5.080;2024-01-30T12:03:04;101973.13;;;12.04;100.00
36748;BME280;22716;51.556;5.080;2024-01-30T12:05:33;101971.41;;;12.16;100.00
36748;BME280;22716;51.556;5.080;2024-01-30T12:08:05;101968.78;;;12.28;100.00
36748;BME280;22716;51.556;5.080;2024-01-30T12:10:33;101968.78;;;12.42;100.00
36748;BME280;22716;51.556;5.080;2024-01-30T12:13:02;101981.91;;;12.57;100.00
36748;BME280;22716;51.556;5.080;2024-01-30T12:15:31;101977.56;;;12.59;100.00
36748;BME280;22716;51.556;5.080;2024-01-30T12:18:07;101988.06;;;12.56;100.00
36748;BME280;22716;51.556;5.080;2024-01-30T12:20:36;101993.31;;;12.41;100.00
36748;BME280;22716;51.556;5.080;2024-01-30T12:23:07;101994.16;;;12.22;100.00
36748;BME280;22716;51.556;5.080;2024-01-30T12:25:36;101995.94;;;12.06;100.00
36748;BME280;22716;51.556;5.080;2024-01-30T12:28:05;102002.00;;;11.86;100.00
36748;BME280;22716;51.556;5.080;2024-01-30T12:30:34;101980.00;;;11.59;100.00
36748;BME280;22716;51.556;5.080;2024-01-30T12:33:03;101995.75;;;11.59;100.00
36748;BME280;22716;51.556;5.080;2024-01-30T12:35:34;102004.44;;;11.46;100.00
36748;BME280;22716;51.556;5.080;2024-01-30T12:38:03;102010.53;;;11.42;100.00
36748;BME280;22716;51.556;5.080;2024-01-30T12:40:34;101993.00;;;11.31;100.00
36748;BME280;22716;51.556;5.080;2024-01-30T12:43:03;102001.72;;;11.28;100.00
36748;BME280;22716;51.556;5.080;2024-01-30T12:45:32;102010.44;;;11.19;100.00
36748;BME280;22716;51.556;5.080;2024-01-30T12:48:00;102020.94;;;11.21;100.00
36748;BME280;22716;51.556;5.080;2024-01-30T12:50:29;102025.31;;;11.25;100.00
36748;BME280;22716;51.556;5.080;2024-01-30T12:52:57;102013.94;;;11.23;100.00
36748;BME280;22716;51.556;5.080;2024-01-30T12:55:26;102016.56;;;11.23;100.00
36748;BME280;22716;51.556;5.080;2024-01-30T12:57:58;102025.28;;;11.19;100.00